Time;durP1;ratioP1;P1;durP2;ratioP2;P2;SDS_P1;SDS_P2;PMS_P1;PMS_P2;Temp;Humidity;BMP_temperature;BMP_pressure;BME280_temperature;BME280_humidity;BME280_pressure;Samples;Min_cycle;Max_cycle;Signal;HPM_P1;HPM_P2
2023/12/24 00:01:44;;;;;;;;;;;;;;;9.00;100.00;100783.06;5031185;28;20392;-75
2023/12/24 00:04:10;;;;;;;;;;;;;;;8.99;100.00;100783.06;5033998;28;20337;-76
2023/12/24 00:06:35;;;;;;;;;;;;;;;9.07;100.00;100796.13;5023675;28;19928;-75
2023/12/24 00:09:02;;;;;;;;;;;;;;;9.02;100.00;100783.03;5037618;28;20050;-78
2023/12/24 00:11:27;;;;;;;;;;;;;;;9.02;100.00;100789.16;5035942;28;19916;-78
2023/12/24 00:13:52;;;;;;;;;;;;;;;9.05;100.00;100790.91;5017106;28;20267;-79
2023/12/24 00:16:18;;;;;;;;;;;;;;;9.01;100.00;100797.88;5015595;28;20457;-77
2023/12/24 00:18:43;;;;;;;;;;;;;;;9.01;100.00;100797.00;5007267;28;20605;-74
2023/12/24 00:21:12;;;;;;;;;;;;;;;9.01;100.00;100810.09;5013172;28;19921;-76
2023/12/24 00:23:39;;;;;;;;;;;;;;;9.07;100.00;100811.78;5031450;28;20008;-76
2023/12/24 00:26:04;;;;;;;;;;;;;;;9.07;100.00;100806.56;5028923;28;19917;-76
2023/12/24 00:28:29;;;;;;;;;;;;;;;9.08;100.00;100789.97;5008072;28;19940;-75
2023/12/24 00:30:55;;;;;;;;;;;;;;;9.09;100.00;100789.13;5047178;28;19927;-75
2023/12/24 00:33:20;;;;;;;;;;;;;;;9.13;100.00;100788.22;5032949;28;19948;-75
2023/12/24 00:35:47;;;;;;;;;;;;;;;9.16;99.73;100781.22;5031410;28;20353;-76
2023/12/24 00:38:12;;;;;;;;;;;;;;;9.14;99.67;100775.13;5028523;28;19928;-76
2023/12/24 00:40:38;;;;;;;;;;;;;;;9.13;99.62;100769.91;5032866;28;19917;-75
2023/12/24 00:43:04;;;;;;;;;;;;;;;9.16;99.27;100769.91;5021848;28;19921;-76
2023/12/24 00:45:29;;;;;;;;;;;;;;;9.15;99.14;100752.47;5013566;28;19933;-76
2023/12/24 00:47:55;;;;;;;;;;;;;;;9.23;98.16;100750.66;5029053;28;19943;-75
2023/12/24 00:50:20;;;;;;;;;;;;;;;9.17;98.18;100741.13;5014320;28;19928;-75
2023/12/24 00:52:46;;;;;;;;;;;;;;;9.18;98.25;100734.16;4999113;28;19921;-76
2023/12/24 00:55:12;;;;;;;;;;;;;;;9.11;98.35;100714.19;5014171;28;19972;-75
2023/12/24 00:57:37;;;;;;;;;;;;;;;9.08;97.97;100706.34;5032910;28;19967;-75
2023/12/24 01:00:04;;;;;;;;;;;;;;;9.08;97.97;100688.94;5008180;28;19921;-75
2023/12/24 01:02:29;;;;;;;;;;;;;;;9.06;97.94;100681.97;5009419;28;19932;-75
2023/12/24 01:04:55;;;;;;;;;;;;;;;8.96;98.03;100687.25;5033935;28;20385;-75
2023/12/24 01:07:20;;;;;;;;;;;;;;;8.93;98.17;100668.97;5014690;28;19960;-75
2023/12/24 01:09:54;;;;;;;;;;;;;;;8.92;98.09;100651.59;5010456;28;19920;-76
2023/12/24 01:12:20;;;;;;;;;;;;;;;8.95;98.41;100645.44;5054852;28;19923;-75
2023/12/24 01:14:45;;;;;;;;;;;;;;;8.93;97.33;100648.06;5005233;28;19932;-75
2023/12/24 01:17:10;;;;;;;;;;;;;;;8.92;98.31;100641.13;5018029;28;19928;-76
2023/12/24 01:19:36;;;;;;;;;;;;;;;8.91;98.32;100657.69;5027727;28;19917;-75
2023/12/24 01:22:01;;;;;;;;;;;;;;;8.99;98.00;100647.16;5035285;28;19925;-76
2023/12/24 01:24:27;;;;;;;;;;;;;;;8.93;98.33;100653.31;5023395;28;19921;-78
2023/12/24 01:26:52;;;;;;;;;;;;;;;8.99;97.85;100650.66;5048633;28;19971;-75
2023/12/24 01:29:18;;;;;;;;;;;;;;;8.99;98.05;100658.50;5027300;28;20363;-76
2023/12/24 01:31:43;;;;;;;;;;;;;;;9.05;97.66;100646.25;5034172;28;19931;-77
2023/12/24 01:34:08;;;;;;;;;;;;;;;9.07;97.89;100652.34;5049598;28;19936;-77
2023/12/24 01:36:37;;;;;;;;;;;;;;;9.07;98.36;100654.97;5013226;28;20378;-77
2023/12/24 01:39:03;;;;;;;;;;;;;;;9.04;98.46;100661.06;5021429;28;19970;-80
2023/12/24 01:41:28;;;;;;;;;;;;;;;9.10;97.88;100653.16;5029026;28;19936;-79
2023/12/24 01:43:53;;;;;;;;;;;;;;;9.07;98.78;100663.66;5028571;28;19928;-76
2023/12/24 01:46:20;;;;;;;;;;;;;;;9.09;99.07;100661.03;5035686;28;19943;-80
2023/12/24 01:48:45;;;;;;;;;;;;;;;9.08;99.20;100667.13;5036325;28;20390;-78
2023/12/24 01:51:11;;;;;;;;;;;;;;;9.06;99.78;100674.13;5049786;28;19933;-77
2023/12/24 01:53:37;;;;;;;;;;;;;;;9.07;99.95;100675.88;5029245;28;20008;-77
2023/12/24 01:56:04;;;;;;;;;;;;;;;9.05;100.00;100664.53;5047910;28;19917;-74
2023/12/24 01:58:29;;;;;;;;;;;;;;;9.04;100.00;100657.56;5028980;28;19917;-77
2023/12/24 02:00:56;;;;;;;;;;;;;;;9.02;100.00;100670.66;5023031;28;19932;-76
2023/12/24 02:03:22;;;;;;;;;;;;;;;8.99;100.00;100684.63;5030878;28;19929;-74
2023/12/24 02:05:49;;;;;;;;;;;;;;;9.00;100.00;100670.66;5031518;28;19947;-76
2023/12/24 02:08:21;;;;;;;;;;;;;;;8.99;100.00;100674.19;5033413;28;19917;-75
2023/12/24 02:10:50;;;;;;;;;;;;;;;8.98;100.00;100662.00;5022945;28;19928;-77
2023/12/24 02:13:15;;;;;;;;;;;;;;;8.95;100.00;100655.91;5017470;28;19967;-76
2023/12/24 02:15:41;;;;;;;;;;;;;;;8.91;100.00;100659.44;5014863;28;19929;-78
2023/12/24 02:18:10;;;;;;;;;;;;;;;8.88;100.00;100649.00;5031842;28;19921;-75
2023/12/24 02:20:39;;;;;;;;;;;;;;;8.89;100.00;100646.34;5039807;28;20008;-75
2023/12/24 02:23:05;;;;;;;;;;;;;;;8.89;100.00;100641.13;5042090;28;19982;-74
2023/12/24 02:25:33;;;;;;;;;;;;;;;8.87;100.00;100648.13;5045462;28;19925;-74
2023/12/24 02:28:06;;;;;;;;;;;;;;;8.86;100.00;100632.47;5029695;28;19921;-74
2023/12/24 02:30:41;;;;;;;;;;;;;;;8.85;100.00;100629.00;5030818;28;19929;-72
2023/12/24 02:33:09;;;;;;;;;;;;;;;8.86;100.00;100624.63;5046556;28;20298;-74
2023/12/24 02:35:38;;;;;;;;;;;;;;;8.83;100.00;100635.97;5032557;28;19916;-73
2023/12/24 02:38:04;;;;;;;;;;;;;;;8.87;100.00;100624.63;5037051;28;19966;-73
2023/12/24 02:40:30;;;;;;;;;;;;;;;8.81;100.00;100622.91;5023219;28;19920;-73
2023/12/24 02:42:55;;;;;;;;;;;;;;;8.79;100.00;100623.81;5033489;28;19932;-74
2023/12/24 02:45:20;;;;;;;;;;;;;;;8.76;100.00;100614.25;5025680;28;19929;-74
2023/12/24 02:47:46;;;;;;;;;;;;;;;8.75;100.00;100611.63;5011751;28;20366;-74
2023/12/24 02:50:11;;;;;;;;;;;;;;;8.76;100.00;100602.94;5030495;28;20385;-74
2023/12/24 02:52:38;;;;;;;;;;;;;;;8.76;100.00;100600.31;5035803;28;20295;-75
2023/12/24 02:55:03;;;;;;;;;;;;;;;8.70;100.00;100598.63;5030165;28;19921;-74
2023/12/24 02:57:29;;;;;;;;;;;;;;;8.74;100.00;100589.88;5016148;28;19921;-74
2023/12/24 02:59:54;;;;;;;;;;;;;;;8.74;100.00;100596.88;5002946;28;20441;-74
2023/12/24 03:02:20;;;;;;;;;;;;;;;8.67;100.00;100589.06;5028924;28;20004;-74
2023/12/24 03:04:45;;;;;;;;;;;;;;;8.71;100.00;100594.28;5007151;28;19963;-74
2023/12/24 03:07:10;;;;;;;;;;;;;;;8.67;100.00;100593.41;5009577;28;20374;-74
2023/12/24 03:09:37;;;;;;;;;;;;;;;8.66;100.00;100597.78;5034741;28;20358;-74
2023/12/24 03:12:03;;;;;;;;;;;;;;;8.73;100.00;100576.84;5035294;28;20078;-73
2023/12/24 03:14:28;;;;;;;;;;;;;;;8.65;100.00;100585.59;5031894;28;20425;-74
2023/12/24 03:16:55;;;;;;;;;;;;;;;8.66;100.00;100578.63;5032104;28;19925;-74
2023/12/24 03:19:20;;;;;;;;;;;;;;;8.63;100.00;100565.59;5038015;28;19931;-74
2023/12/24 03:21:45;;;;;;;;;;;;;;;8.62;100.00;100564.72;5026351;28;20290;-74
2023/12/24 03:24:11;;;;;;;;;;;;;;;8.62;100.00;100563.84;5022547;28;19928;-74
2023/12/24 03:26:36;;;;;;;;;;;;;;;8.60;100.00;100552.56;5030735;28;19920;-74
2023/12/24 03:29:01;;;;;;;;;;;;;;;8.59;100.00;100551.69;5050024;28;19924;-74
2023/12/24 03:31:27;;;;;;;;;;;;;;;8.58;100.00;100554.34;5035410;28;20279;-75
2023/12/24 03:33:55;;;;;;;;;;;;;;;8.58;100.00;100547.34;5053615;28;19920;-74
2023/12/24 03:36:20;;;;;;;;;;;;;;;8.58;100.00;100541.28;5042577;28;19982;-74
2023/12/24 03:38:46;;;;;;;;;;;;;;;8.61;100.00;100542.09;5063963;28;20386;-74
2023/12/24 03:41:11;;;;;;;;;;;;;;;8.64;100.00;100538.59;5054090;28;20289;-74
2023/12/24 03:43:37;;;;;;;;;;;;;;;8.64;100.00;100539.44;5050081;28;19970;-74
2023/12/24 03:46:02;;;;;;;;;;;;;;;8.64;100.00;100536.84;5034147;28;19920;-74
2023/12/24 03:48:28;;;;;;;;;;;;;;;8.66;100.00;100527.25;5045105;28;19925;-74
2023/12/24 03:50:55;;;;;;;;;;;;;;;8.64;100.00;100518.56;5032572;28;19920;-74
2023/12/24 03:53:23;;;;;;;;;;;;;;;8.68;100.00;100511.56;5039078;28;19920;-74
2023/12/24 03:55:48;;;;;;;;;;;;;;;8.70;100.00;100514.16;5051635;28;19925;-74
2023/12/24 03:58:14;;;;;;;;;;;;;;;8.70;100.00;100516.78;5031564;28;19927;-74
2023/12/24 04:00:40;;;;;;;;;;;;;;;8.69;100.00;100523.72;5042230;28;19921;-75
2023/12/24 04:03:05;;;;;;;;;;;;;;;8.72;100.00;100513.28;5036468;28;20342;-74
2023/12/24 04:05:30;;;;;;;;;;;;;;;8.72;100.00;100525.47;5027259;28;19924;-74
2023/12/24 04:07:56;;;;;;;;;;;;;;;8.73;100.00;100527.19;5053543;28;20298;-74
2023/12/24 04:10:21;;;;;;;;;;;;;;;8.75;100.00;100513.25;5031610;28;19966;-74
2023/12/24 04:12:48;;;;;;;;;;;;;;;8.74;100.00;100513.25;5050703;28;19920;-74
2023/12/24 04:15:13;;;;;;;;;;;;;;;8.74;100.00;100502.81;5052653;28;20370;-74
2023/12/24 04:17:38;;;;;;;;;;;;;;;8.78;100.00;100513.22;5035391;28;20040;-74
2023/12/24 04:20:04;;;;;;;;;;;;;;;8.80;100.00;100510.59;5024869;28;19921;-75
2023/12/24 04:22:30;;;;;;;;;;;;;;;8.76;100.00;100509.72;5024735;28;19928;-74
2023/12/24 04:24:55;;;;;;;;;;;;;;;8.76;100.00;100501.91;5030792;28;19931;-75
2023/12/24 04:27:21;;;;;;;;;;;;;;;8.74;100.00;100502.81;5033111;28;20471;-75
2023/12/24 04:29:46;;;;;;;;;;;;;;;8.78;100.00;100499.28;5050612;28;19920;-75
2023/12/24 04:32:12;;;;;;;;;;;;;;;8.78;100.00;100512.34;5029821;28;19930;-74
2023/12/24 04:34:38;;;;;;;;;;;;;;;8.75;100.00;100507.13;5033828;28;20289;-76
2023/12/24 04:37:03;;;;;;;;;;;;;;;8.76;100.00;100498.44;5051834;28;19928;-77
2023/12/24 04:39:29;;;;;;;;;;;;;;;8.80;100.00;100500.13;5048494;28;19925;-76
2023/12/24 04:41:57;;;;;;;;;;;;;;;8.75;100.00;100507.13;5026192;28;19925;-75
2023/12/24 04:44:23;;;;;;;;;;;;;;;8.75;100.00;100497.56;5047070;28;19938;-75
2023/12/24 04:46:48;;;;;;;;;;;;;;;8.79;100.00;100494.06;5032942;28;20433;-74
2023/12/24 04:49:13;;;;;;;;;;;;;;;8.78;100.00;100497.53;5047134;28;19924;-75
2023/12/24 04:51:41;;;;;;;;;;;;;;;8.79;100.00;100498.38;5050370;28;19952;-78
2023/12/24 04:54:07;;;;;;;;;;;;;;;8.85;100.00;100498.34;5032909;28;20015;-77
2023/12/24 04:56:32;;;;;;;;;;;;;;;8.83;100.00;100494.88;5027425;28;21951;-76
2023/12/24 04:58:58;;;;;;;;;;;;;;;8.83;100.00;100497.47;5039906;28;19931;-77
2023/12/24 05:01:23;;;;;;;;;;;;;;;8.83;100.00;100494.88;5033529;28;20019;-79
2023/12/24 05:03:50;;;;;;;;;;;;;;;8.82;100.00;100491.41;5034340;28;19960;-75
2023/12/24 05:06:15;;;;;;;;;;;;;;;8.84;100.00;100489.63;5059971;28;20274;-75
2023/12/24 05:08:41;;;;;;;;;;;;;;;8.83;100.00;100489.66;5031625;28;19931;-75
2023/12/24 05:11:07;;;;;;;;;;;;;;;8.84;100.00;100480.94;5047222;28;20544;-75
2023/12/24 05:13:33;;;;;;;;;;;;;;;8.83;100.00;100482.69;5049554;28;20011;-74
2023/12/24 05:16:01;;;;;;;;;;;;;;;8.88;100.00;100485.25;5035744;28;20007;-75
2023/12/24 05:18:26;;;;;;;;;;;;;;;8.85;100.00;100482.69;5025703;28;19921;-75
2023/12/24 05:20:52;;;;;;;;;;;;;;;8.82;100.00;100477.47;5004954;28;20020;-75
2023/12/24 05:23:19;;;;;;;;;;;;;;;8.82;100.00;100483.56;5014828;28;19947;-75
2023/12/24 05:25:45;;;;;;;;;;;;;;;8.80;100.00;100474.84;5025788;28;20043;-75
2023/12/24 05:28:10;;;;;;;;;;;;;;;8.81;100.00;100473.13;5028575;28;20406;-76
2023/12/24 05:30:35;;;;;;;;;;;;;;;8.81;100.00;100478.34;5015250;28;19921;-78
2023/12/24 05:33:01;;;;;;;;;;;;;;;8.82;100.00;100472.22;5030515;28;19924;-77
2023/12/24 05:35:26;;;;;;;;;;;;;;;8.80;100.00;100476.63;5012895;28;19921;-77
2023/12/24 05:37:54;;;;;;;;;;;;;;;8.83;100.00;100473.97;5012466;28;19964;-77
2023/12/24 05:40:19;;;;;;;;;;;;;;;8.86;100.00;100479.16;5012709;28;19921;-78
2023/12/24 05:42:45;;;;;;;;;;;;;;;8.84;100.00;100468.72;5030516;28;20504;-78
2023/12/24 05:45:11;;;;;;;;;;;;;;;8.86;100.00;100473.06;5030719;28;19929;-77
2023/12/24 05:47:36;;;;;;;;;;;;;;;8.92;100.00;100479.13;5030016;28;19970;-79
2023/12/24 05:50:06;;;;;;;;;;;;;;;8.91;100.00;100466.91;5015726;28;20007;-78
2023/12/24 05:52:31;;;;;;;;;;;;;;;8.91;100.00;100472.16;5031662;28;20405;-79
2023/12/24 05:54:56;;;;;;;;;;;;;;;8.93;100.00;100472.13;5028770;28;19917;-79
2023/12/24 05:57:22;;;;;;;;;;;;;;;8.91;100.00;100461.69;5021116;28;19923;-79
2023/12/24 05:59:47;;;;;;;;;;;;;;;9.00;100.00;100473.78;5014959;28;19960;-77
2023/12/24 06:02:15;;;;;;;;;;;;;;;8.97;100.00;100464.22;5011623;28;19925;-77
2023/12/24 06:04:40;;;;;;;;;;;;;;;8.98;100.00;100462.50;5008366;28;19982;-80
2023/12/24 06:07:06;;;;;;;;;;;;;;;8.97;100.00;100464.22;5013893;28;19921;-77
2023/12/24 06:09:32;;;;;;;;;;;;;;;8.95;100.00;100463.41;5011823;28;20390;-78
2023/12/24 06:11:57;;;;;;;;;;;;;;;8.97;100.00;100456.38;5008178;28;19974;-77
2023/12/24 06:14:26;;;;;;;;;;;;;;;8.97;100.00;100473.84;5026804;28;19994;-75
2023/12/24 06:16:52;;;;;;;;;;;;;;;9.01;100.00;100473.78;5121155;23;19931;-74
2023/12/24 06:19:25;;;;;;;;;;;;;;;9.04;100.00;100464.16;5092011;22;19932;-76
2023/12/24 06:21:53;;;;;;;;;;;;;;;9.02;100.00;100467.66;5088998;23;20317;-76
2023/12/24 06:24:21;;;;;;;;;;;;;;;9.04;100.00;100466.75;5142852;22;20719;-75
2023/12/24 06:26:49;;;;;;;;;;;;;;;9.04;100.00;100464.16;5096561;22;20377;-76
2023/12/24 06:29:15;;;;;;;;;;;;;;;9.04;100.00;100456.31;5219896;22;19924;-75
2023/12/24 06:31:40;;;;;;;;;;;;;;;9.04;100.00;100456.31;5155284;22;20301;-79
2023/12/24 06:34:07;;;;;;;;;;;;;;;9.06;100.00;100454.56;5155591;22;19925;-76
2023/12/24 06:49:46;;;;;;;;;;;;;;;9.09;100.00;100447.53;3660408;22;20216;-75
2023/12/24 07:31:23;;;;;;;;;;;;;;;9.30;100.00;100445.56;1276575;23;20209;-76
2023/12/24 07:33:48;;;;;;;;;;;;;;;9.30;100.00;100448.19;5073816;28;19928;-77
2023/12/24 07:36:14;;;;;;;;;;;;;;;9.29;100.00;100443.81;5075752;28;19924;-76
2023/12/24 07:38:39;;;;;;;;;;;;;;;9.32;100.00;100442.03;5065226;28;20762;-76
2023/12/24 07:41:04;;;;;;;;;;;;;;;9.33;100.00;100446.38;5053938;28;19929;-76
2023/12/24 07:43:30;;;;;;;;;;;;;;;9.34;100.00;100449.88;5046194;28;20298;-75
2023/12/24 07:45:58;;;;;;;;;;;;;;;9.33;100.00;100448.97;5084738;28;19946;-77
2023/12/24 07:48:24;;;;;;;;;;;;;;;9.36;100.00;100453.31;5064226;28;19921;-75
2023/12/24 07:50:49;;;;;;;;;;;;;;;9.38;100.00;100462.03;5069237;28;19924;-77
2023/12/24 07:53:16;;;;;;;;;;;;;;;9.40;100.00;100454.16;5059587;28;19932;-76
2023/12/24 07:55:41;;;;;;;;;;;;;;;9.41;100.00;100450.63;5064356;28;19927;-77
2023/12/24 07:58:06;;;;;;;;;;;;;;;9.41;100.00;100445.41;5076044;28;19924;-77
2023/12/24 08:00:32;;;;;;;;;;;;;;;9.42;100.00;100448.00;5066607;28;19932;-81
2023/12/24 08:02:57;;;;;;;;;;;;;;;9.42;100.00;100437.53;5054602;28;19986;-81
2023/12/24 08:05:22;;;;;;;;;;;;;;;9.42;100.00;100434.06;5070930;28;19916;-81
2023/12/24 08:07:49;;;;;;;;;;;;;;;9.41;100.00;100435.81;5054772;28;19920;-80
2023/12/24 08:10:14;;;;;;;;;;;;;;;9.42;100.00;100431.44;5055142;28;19920;-77
2023/12/24 08:12:39;;;;;;;;;;;;;;;9.44;100.00;100437.50;5056438;28;20630;-80
2023/12/24 08:15:05;;;;;;;;;;;;;;;9.43;100.00;100438.41;5043610;28;19974;-80
2023/12/24 08:17:31;;;;;;;;;;;;;;;9.46;100.00;100436.63;5068702;28;19931;-78
2023/12/24 08:19:56;;;;;;;;;;;;;;;9.49;100.00;100438.31;5076509;28;19933;-80
2023/12/24 08:22:25;;;;;;;;;;;;;;;9.51;100.00;100436.53;5055674;28;19928;-77
2023/12/24 08:24:54;;;;;;;;;;;;;;;9.49;100.00;100427.88;5054618;28;20348;-75
2023/12/24 08:27:21;;;;;;;;;;;;;;;9.47;100.00;100430.50;5062226;28;19923;-77
2023/12/24 08:29:46;;;;;;;;;;;;;;;9.50;100.00;100432.22;5063846;28;19924;-78
2023/12/24 08:32:11;;;;;;;;;;;;;;;9.50;100.00;100429.59;5039417;28;19929;-75
2023/12/24 08:34:37;;;;;;;;;;;;;;;9.49;100.00;100423.47;5066079;28;19921;-75
2023/12/24 08:37:02;;;;;;;;;;;;;;;9.49;100.00;100433.94;5065969;28;19920;-76
2023/12/24 08:39:27;;;;;;;;;;;;;;;9.50;100.00;100422.59;5065900;28;19916;-76
2023/12/24 08:41:53;;;;;;;;;;;;;;;9.51;100.00;100420.84;5064047;28;19995;-78
2023/12/24 08:44:18;;;;;;;;;;;;;;;9.56;100.00;100420.81;5040061;28;19921;-77
2023/12/24 08:46:48;;;;;;;;;;;;;;;9.57;100.00;100419.91;5062370;28;19970;-77
2023/12/24 08:49:17;;;;;;;;;;;;;;;9.59;100.00;100426.84;5066331;28;20301;-80
2023/12/24 08:51:42;;;;;;;;;;;;;;;9.60;100.00;100422.50;5047834;28;20007;-80
2023/12/24 08:54:08;;;;;;;;;;;;;;;9.62;100.00;100408.47;5074307;28;20015;-80
2023/12/24 08:56:34;;;;;;;;;;;;;;;9.67;100.00;100422.38;5044908;28;19929;-78
2023/12/24 08:59:02;;;;;;;;;;;;;;;9.68;100.00;100418.88;5061443;28;19928;-80
2023/12/24 09:01:27;;;;;;;;;;;;;;;9.74;100.00;100417.94;5075379;28;20297;-82
2023/12/24 09:03:53;;;;;;;;;;;;;;;9.74;100.00;100427.50;5076874;28;19924;-80
2023/12/24 09:06:21;;;;;;;;;;;;;;;9.77;100.00;100419.59;5074183;28;20015;-82
2023/12/24 09:08:46;;;;;;;;;;;;;;;9.77;100.00;100445.78;5050231;28;19928;-80
2023/12/24 09:11:13;;;;;;;;;;;;;;;9.81;100.00;100434.38;5076380;28;20278;-80
2023/12/24 09:13:40;;;;;;;;;;;;;;;9.81;100.00;100444.84;5049299;28;19928;-80
2023/12/24 09:16:05;;;;;;;;;;;;;;;9.85;100.00;100439.53;5060046;28;19920;-77
2023/12/24 09:18:34;;;;;;;;;;;;;;;9.86;100.00;100443.03;5059214;28;20378;-77
2023/12/24 09:20:59;;;;;;;;;;;;;;;9.88;100.00;100449.97;5070735;28;19939;-76
2023/12/24 09:23:25;;;;;;;;;;;;;;;9.86;100.00;100453.50;5052188;28;19920;-76
2023/12/24 09:25:50;;;;;;;;;;;;;;;9.87;100.00;100440.38;5076841;28;20369;-76
2023/12/24 09:28:15;;;;;;;;;;;;;;;9.88;100.00;100425.53;5064707;28;20279;-81
2023/12/24 09:30:41;;;;;;;;;;;;;;;9.91;100.00;100430.72;5047560;28;19921;-78
2023/12/24 09:33:10;;;;;;;;;;;;;;;9.92;100.00;100432.47;5056202;28;20284;-77
2023/12/24 09:35:35;;;;;;;;;;;;;;;9.95;100.00;100424.56;5060576;28;19925;-76
2023/12/24 09:38:01;;;;;;;;;;;;;;;9.95;100.00;100424.56;5070173;28;19920;-79
2023/12/24 09:40:27;;;;;;;;;;;;;;;10.00;100.00;100421.88;5060557;28;19920;-79
2023/12/24 09:42:53;;;;;;;;;;;;;;;10.03;100.00;100432.31;5058582;28;19921;-78
2023/12/24 09:45:19;;;;;;;;;;;;;;;9.99;100.00;100431.47;5054571;28;20359;-79
2023/12/24 09:47:44;;;;;;;;;;;;;;;9.99;100.00;100428.84;5032869;28;20016;-80
2023/12/24 09:50:10;;;;;;;;;;;;;;;9.99;100.00;100428.84;5031190;28;20394;-80
2023/12/24 09:52:35;;;;;;;;;;;;;;;10.02;100.00;100423.56;5059589;28;19973;-80
2023/12/24 09:55:02;;;;;;;;;;;;;;;10.03;100.00;100424.44;5060222;28;19924;-80
2023/12/24 09:57:28;;;;;;;;;;;;;;;10.04;100.00;100423.53;5079485;28;19916;-79
2023/12/24 09:59:53;;;;;;;;;;;;;;;10.04;100.00;100416.56;5071829;28;19920;-79
2023/12/24 10:02:19;;;;;;;;;;;;;;;10.06;100.00;100414.78;5056542;28;19924;-78
2023/12/24 10:04:45;;;;;;;;;;;;;;;10.04;100.00;100410.44;5075148;28;19920;-79
2023/12/24 10:07:10;;;;;;;;;;;;;;;10.08;100.00;100416.53;5056463;28;19974;-80
2023/12/24 10:09:43;;;;;;;;;;;;;;;10.11;100.00;100422.56;5069735;28;20305;-80
2023/12/24 10:12:13;;;;;;;;;;;;;;;10.06;100.00;100440.97;5080862;28;19967;-76
2023/12/24 10:14:40;;;;;;;;;;;;;;;10.12;100.00;100428.66;5063132;28;19917;-79
2023/12/24 10:17:05;;;;;;;;;;;;;;;10.12;100.00;100424.28;5060347;28;19931;-77
2023/12/24 10:19:34;;;;;;;;;;;;;;;10.17;100.00;100421.59;5046758;28;20007;-77
2023/12/24 10:22:00;;;;;;;;;;;;;;;10.22;100.00;100435.47;5063275;28;19920;-77
2023/12/24 10:24:27;;;;;;;;;;;;;;;10.21;100.00;100428.50;5070096;28;19913;-76
2023/12/24 10:27:01;;;;;;;;;;;;;;;10.24;100.00;100417.97;5063239;28;19916;-77
2023/12/24 10:29:27;;;;;;;;;;;;;;;10.27;100.00;100410.09;5052222;28;19978;-76
2023/12/24 10:31:52;;;;;;;;;;;;;;;10.27;100.00;100410.09;5050246;28;19916;-76
2023/12/24 10:34:18;;;;;;;;;;;;;;;10.31;100.00;100414.34;5075997;28;19941;-77
2023/12/24 10:36:44;;;;;;;;;;;;;;;10.35;100.00;100421.31;5040409;28;20369;-77
2023/12/24 10:39:13;;;;;;;;;;;;;;;10.37;100.00;100408.19;5075308;28;19924;-77
2023/12/24 10:41:38;;;;;;;;;;;;;;;10.40;100.00;100414.25;5069457;28;19920;-77
2023/12/24 10:44:04;;;;;;;;;;;;;;;10.42;100.00;100402.88;5042553;28;20370;-76
2023/12/24 10:46:29;;;;;;;;;;;;;;;10.46;100.00;100401.91;5044461;28;19921;-77
2023/12/24 10:48:54;;;;;;;;;;;;;;;10.44;100.00;100401.94;5040345;28;19924;-77
2023/12/24 10:51:20;;;;;;;;;;;;;;;10.48;100.00;100395.75;5042702;28;20428;-76
2023/12/24 10:53:47;;;;;;;;;;;;;;;10.49;100.00;100396.63;5054886;28;19916;-77
2023/12/24 10:56:17;;;;;;;;;;;;;;;10.53;100.00;100385.19;5065546;28;20011;-77
2023/12/24 10:59:01;;;;;;;;;;;;;;;10.55;100.00;100388.66;5065110;28;20002;-77
2023/12/24 11:01:27;;;;;;;;;;;;;;;10.56;100.00;100390.41;5073719;28;20017;-77
2023/12/24 11:03:53;;;;;;;;;;;;;;;10.58;100.00;100380.72;5080809;28;19950;-77
2023/12/24 11:06:36;;;;;;;;;;;;;;;10.61;100.00;100378.06;5060494;28;19917;-76
2023/12/24 11:09:30;;;;;;;;;;;;;;;10.64;100.00;100364.88;5061612;28;19924;-78
2023/12/24 11:11:56;;;;;;;;;;;;;;;10.65;100.00;100368.38;5065236;28;19920;-76
2023/12/24 11:14:41;;;;;;;;;;;;;;;10.70;100.00;100367.41;5065839;28;20281;-77
2023/12/24 11:17:10;;;;;;;;;;;;;;;10.70;100.00;100367.41;5071482;28;19917;-77
2023/12/24 11:19:37;;;;;;;;;;;;;;;10.76;100.00;100366.41;5063427;28;19931;-77
2023/12/24 11:22:15;;;;;;;;;;;;;;;10.71;100.00;100356.00;5046035;28;19982;-77
2023/12/24 11:24:44;;;;;;;;;;;;;;;10.73;100.00;100362.09;5058850;28;19921;-76
2023/12/24 11:27:09;;;;;;;;;;;;;;;10.77;100.00;100362.88;5047998;28;19921;-80
2023/12/24 11:29:46;;;;;;;;;;;;;;;10.76;100.00;100358.56;5080297;28;19967;-80
2023/12/24 11:32:23;;;;;;;;;;;;;;;10.75;100.00;100346.34;5077165;28;19923;-80
2023/12/24 11:34:49;;;;;;;;;;;;;;;10.72;100.00;100347.25;5076055;28;20006;-80
2023/12/24 11:37:27;;;;;;;;;;;;;;;10.74;100.00;100347.22;5070957;28;20007;-81
2023/12/24 11:40:03;;;;;;;;;;;;;;;10.72;100.00;100342.00;5059482;28;19942;-80
2023/12/24 11:43:01;;;;;;;;;;;;;;;10.73;100.00;100337.63;5066268;28;19923;-82
2023/12/24 11:45:29;;;;;;;;;;;;;;;10.71;100.00;100340.28;5049337;28;19932;-81
2023/12/24 11:47:55;;;;;;;;;;;;;;;10.69;100.00;100334.22;5078702;28;20003;-85
2023/12/24 11:50:20;;;;;;;;;;;;;;;10.70;100.00;100330.72;5063568;28;20374;-81
2023/12/24 11:52:47;;;;;;;;;;;;;;;10.70;100.00;100333.34;5062975;28;19929;-83
2023/12/24 11:55:16;;;;;;;;;;;;;;;10.66;100.00;100326.44;5049064;28;19979;-84
2023/12/24 11:57:42;;;;;;;;;;;;;;;10.66;100.00;100338.66;5062315;28;19920;-84
2023/12/24 12:00:23;;;;;;;;;;;;;;;10.65;100.00;100335.19;5044376;28;19920;-77
2023/12/24 12:03:02;;;;;;;;;;;;;;;10.60;100.00;100329.16;5069592;28;19950;-83
2023/12/24 12:05:28;;;;;;;;;;;;;;;10.58;100.00;100323.09;5066917;28;19921;-82
2023/12/24 12:07:54;;;;;;;;;;;;;;;10.57;100.00;100317.00;5061366;28;19960;-81
2023/12/24 12:10:19;;;;;;;;;;;;;;;10.58;100.00;100317.84;5053700;28;19980;-84
2023/12/24 12:12:48;;;;;;;;;;;;;;;10.60;100.00;100313.44;5078289;28;19917;-77
2023/12/24 12:15:14;;;;;;;;;;;;;;;10.59;100.00;100311.72;5065744;28;19923;-78
2023/12/24 12:17:40;;;;;;;;;;;;;;;10.59;100.00;100314.34;5078322;28;20505;-77
2023/12/24 12:20:05;;;;;;;;;;;;;;;10.61;100.00;100307.31;5079649;28;19929;-78
2023/12/24 12:22:31;;;;;;;;;;;;;;;10.58;100.00;100296.88;5053012;28;19949;-80
2023/12/24 12:24:56;;;;;;;;;;;;;;;10.60;100.00;100295.09;5056180;28;19927;-83
2023/12/24 12:27:21;;;;;;;;;;;;;;;10.62;100.00;100302.94;5047476;28;19932;-79
2023/12/24 12:29:47;;;;;;;;;;;;;;;10.62;100.00;100281.97;5062846;28;19924;-84
2023/12/24 12:32:13;;;;;;;;;;;;;;;10.62;100.00;100287.22;5049021;28;19924;-77
2023/12/24 12:34:40;;;;;;;;;;;;;;;10.64;100.00;100283.66;5069764;28;20378;-78
2023/12/24 12:37:06;;;;;;;;;;;;;;;10.61;100.00;100275.00;5044581;28;20289;-77
2023/12/24 12:39:31;;;;;;;;;;;;;;;10.60;100.00;100275.91;5074271;28;19920;-83
2023/12/24 12:41:57;;;;;;;;;;;;;;;10.61;100.00;100270.63;5067949;28;19959;-77
2023/12/24 12:44:23;;;;;;;;;;;;;;;10.67;100.00;100270.47;5056043;28;19925;-79
2023/12/24 12:46:49;;;;;;;;;;;;;;;10.58;100.00;100265.44;5072595;28;19966;-78
2023/12/24 12:49:14;;;;;;;;;;;;;;;10.59;100.00;100261.94;5055516;28;19977;-78
2023/12/24 12:51:39;;;;;;;;;;;;;;;10.58;100.00;100266.31;5052622;28;19929;-84
2023/12/24 12:54:06;;;;;;;;;;;;;;;10.60;100.00;100268.03;5046816;28;19996;-84
2023/12/24 12:56:40;;;;;;;;;;;;;;;10.62;100.00;100256.63;5078836;28;19916;-82
2023/12/24 12:59:06;;;;;;;;;;;;;;;10.67;100.00;100257.38;5082234;28;20532;-82
2023/12/24 13:01:38;;;;;;;;;;;;;;;10.68;100.00;100253.88;5054354;28;20024;-79
2023/12/24 13:04:03;;;;;;;;;;;;;;;10.71;100.00;100247.72;5086794;28;19962;-82
2023/12/24 13:06:29;;;;;;;;;;;;;;;10.74;100.00;100235.38;5046420;28;19921;-80
2023/12/24 13:09:07;;;;;;;;;;;;;;;10.74;100.00;100232.75;5056913;28;20281;-77
2023/12/24 13:11:34;;;;;;;;;;;;;;;10.77;100.00;100236.22;5064760;28;19917;-82
2023/12/24 13:14:05;;;;;;;;;;;;;;;10.78;100.00;100235.34;5055577;28;19920;-78
2023/12/24 13:16:30;;;;;;;;;;;;;;;10.80;100.00;100238.78;5078196;28;19924;-77
2023/12/24 13:18:56;;;;;;;;;;;;;;;10.82;100.00;100222.13;5072342;28;20302;-80
2023/12/24 13:21:21;;;;;;;;;;;;;;;10.84;100.00;100241.28;5068046;28;19928;-79
2023/12/24 13:23:48;;;;;;;;;;;;;;;10.90;100.00;100240.28;5037782;28;19920;-79
2023/12/24 13:26:14;;;;;;;;;;;;;;;10.94;100.00;100241.94;5049536;28;19933;-79